createdAt,value
2022-12-28T00:01:51.276Z,2.27
2022-12-28T00:04:17.811Z,2.33
2022-12-28T00:06:45.355Z,1.80
2022-12-28T00:09:12.745Z,2.27
2022-12-28T00:11:39.368Z,2.60
2022-12-28T00:14:05.920Z,1.90
2022-12-28T00:16:32.559Z,2.10
2022-12-28T00:18:59.188Z,2.03
2022-12-28T00:21:25.721Z,1.97
2022-12-28T00:23:52.299Z,2.40
2022-12-28T00:26:18.858Z,3.10
2022-12-28T00:28:45.400Z,2.70
2022-12-28T00:31:12.093Z,2.37
2022-12-28T00:33:38.599Z,2.17
2022-12-28T00:36:05.118Z,2.30
2022-12-28T00:38:31.759Z,2.23
2022-12-28T00:40:58.247Z,2.37
2022-12-28T00:43:24.824Z,2.10
2022-12-28T00:45:51.339Z,2.33
2022-12-28T00:48:17.925Z,2.40
2022-12-28T00:50:44.433Z,2.23
2022-12-28T00:53:10.957Z,1.87
2022-12-28T00:55:37.644Z,2.43
2022-12-28T00:58:04.267Z,1.37
2022-12-28T01:00:30.831Z,2.37
2022-12-28T01:02:57.401Z,1.70
2022-12-28T01:05:23.935Z,2.97
2022-12-28T01:07:50.435Z,2.17
2022-12-28T01:10:16.970Z,2.00
2022-12-28T01:12:43.488Z,2.33
2022-12-28T01:15:09.987Z,2.33
2022-12-28T01:17:36.522Z,1.87
2022-12-28T01:20:03.098Z,2.13
2022-12-28T01:22:29.607Z,3.00
2022-12-28T01:24:56.136Z,2.47
2022-12-28T01:27:22.692Z,2.10
2022-12-28T01:29:49.381Z,2.30
2022-12-28T01:32:15.867Z,1.80
2022-12-28T01:34:42.375Z,2.33
2022-12-28T01:37:08.878Z,1.77
2022-12-28T01:39:35.418Z,1.67
2022-12-28T01:42:01.912Z,1.70
2022-12-28T01:44:28.420Z,2.03
2022-12-28T01:46:54.972Z,1.80
2022-12-28T01:49:21.493Z,1.87
2022-12-28T01:51:47.980Z,2.47
2022-12-28T01:54:14.619Z,1.30
2022-12-28T01:56:41.140Z,2.07
2022-12-28T01:59:07.841Z,2.30
2022-12-28T02:01:34.405Z,2.10
2022-12-28T02:04:00.967Z,2.53
2022-12-28T02:06:27.461Z,2.80
2022-12-28T02:08:53.955Z,2.20
2022-12-28T02:11:20.495Z,2.20
2022-12-28T02:13:47.129Z,2.07
2022-12-28T02:16:13.723Z,2.20
2022-12-28T02:18:40.232Z,2.23
2022-12-28T02:21:07.317Z,2.37
2022-12-28T02:23:33.850Z,2.37
2022-12-28T02:26:00.393Z,1.87
2022-12-28T02:28:26.912Z,2.00
2022-12-28T02:30:53.463Z,1.87
2022-12-28T02:33:20.055Z,2.40
2022-12-28T02:35:46.620Z,2.17
2022-12-28T02:38:13.123Z,1.50
2022-12-28T02:40:39.612Z,1.50
2022-12-28T02:43:06.108Z,1.40
2022-12-28T02:45:51.518Z,1.60
2022-12-28T02:48:37.133Z,1.90
2022-12-28T02:51:03.670Z,1.73
2022-12-28T02:53:30.185Z,1.60
2022-12-28T02:56:09.080Z,2.17
2022-12-28T02:58:35.637Z,2.67
2022-12-28T03:01:02.310Z,2.70
2022-12-28T03:03:28.950Z,2.13
2022-12-28T03:06:19.325Z,2.20
2022-12-28T03:08:46.247Z,1.67
2022-12-28T03:11:16.050Z,1.80
2022-12-28T03:13:42.973Z,1.90
2022-12-28T03:16:09.465Z,2.17
2022-12-28T03:18:55.047Z,2.10
2022-12-28T03:21:40.318Z,2.30
2022-12-28T03:24:25.593Z,2.40
2022-12-28T03:27:10.956Z,2.10
2022-12-28T03:29:56.380Z,1.70
2022-12-28T03:32:22.945Z,2.40
2022-12-28T03:34:49.458Z,2.20
2022-12-28T03:37:16.004Z,1.80
2022-12-28T03:39:42.620Z,1.73
2022-12-28T03:42:28.047Z,1.83
2022-12-28T03:44:54.577Z,1.50
2022-12-28T03:47:21.114Z,1.90
2022-12-28T03:49:47.650Z,2.17
2022-12-28T03:52:14.161Z,2.33
2022-12-28T03:54:40.745Z,1.77
2022-12-28T03:57:07.269Z,2.97
2022-12-28T03:59:33.849Z,2.30
2022-12-28T04:02:00.492Z,1.63
2022-12-28T04:04:27.054Z,1.60
2022-12-28T04:06:53.534Z,2.27
2022-12-28T04:09:20.176Z,2.03
2022-12-28T04:11:46.651Z,1.63
2022-12-28T04:14:13.170Z,2.27
2022-12-28T04:16:39.679Z,1.43
2022-12-28T04:19:06.177Z,1.70
2022-12-28T04:21:32.707Z,1.73
2022-12-28T04:23:59.216Z,2.83
2022-12-28T04:26:25.758Z,2.27
2022-12-28T04:28:52.268Z,2.07
2022-12-28T04:31:18.836Z,1.80
2022-12-28T04:33:45.408Z,1.70
2022-12-28T04:36:11.957Z,1.87
2022-12-28T04:38:38.471Z,1.80
2022-12-28T04:41:04.981Z,2.03
2022-12-28T04:43:31.616Z,1.70
2022-12-28T04:45:58.138Z,1.93
2022-12-28T04:48:24.675Z,1.80
2022-12-28T04:50:51.207Z,2.53
2022-12-28T04:53:17.710Z,2.00
2022-12-28T04:55:44.220Z,1.90
2022-12-28T04:58:10.799Z,2.03
2022-12-28T05:00:37.309Z,1.70
2022-12-28T05:03:03.941Z,1.90
2022-12-28T05:05:31.436Z,1.83
2022-12-28T05:07:57.936Z,1.80
2022-12-28T05:10:24.452Z,1.80
2022-12-28T05:12:50.978Z,1.80
2022-12-28T05:15:17.468Z,1.80
2022-12-28T05:17:43.994Z,1.90
2022-12-28T05:20:10.734Z,1.90
2022-12-28T05:22:40.887Z,1.67
2022-12-28T05:25:07.805Z,1.67
2022-12-28T05:27:34.359Z,1.70
2022-12-28T05:30:00.879Z,1.80
2022-12-28T05:32:27.353Z,1.87
2022-12-28T05:34:53.940Z,1.50
2022-12-28T05:37:22.272Z,1.67
2022-12-28T05:39:49.016Z,1.63
2022-12-28T05:42:15.606Z,1.60
2022-12-28T05:44:42.103Z,1.50
2022-12-28T05:47:08.705Z,1.63
2022-12-28T05:49:35.247Z,1.70
2022-12-28T05:52:01.863Z,1.60
2022-12-28T05:54:28.347Z,1.50
2022-12-28T05:56:54.879Z,1.20
2022-12-28T05:59:21.397Z,1.10
2022-12-28T06:01:47.993Z,1.20
2022-12-28T06:04:14.657Z,1.67
2022-12-28T06:06:41.162Z,1.63
2022-12-28T06:09:07.657Z,1.43
2022-12-28T06:11:34.213Z,1.40
2022-12-28T06:14:00.778Z,1.30
2022-12-28T06:16:27.337Z,1.60
2022-12-28T06:18:53.916Z,1.60
2022-12-28T06:21:20.428Z,1.17
2022-12-28T06:23:46.970Z,0.97
2022-12-28T06:26:13.449Z,1.37
2022-12-28T06:28:39.930Z,1.07
2022-12-28T06:31:06.443Z,0.63
2022-12-28T06:33:32.947Z,1.07
2022-12-28T06:35:59.457Z,1.20
2022-12-28T06:38:27.047Z,1.63
2022-12-28T06:41:12.896Z,0.97
2022-12-28T06:43:40.118Z,0.87
2022-12-28T06:46:06.860Z,0.90
2022-12-28T06:48:33.421Z,1.10
2022-12-28T06:50:59.929Z,1.10
2022-12-28T06:53:26.420Z,1.30
2022-12-28T06:55:52.980Z,0.80
2022-12-28T06:58:19.528Z,0.63
2022-12-28T07:00:46.050Z,0.70
2022-12-28T07:03:12.652Z,0.80
2022-12-28T07:05:39.155Z,0.90
2022-12-28T07:08:12.277Z,0.97
2022-12-28T07:10:39.279Z,1.10
2022-12-28T07:13:05.838Z,1.20
2022-12-28T07:15:32.324Z,1.33
2022-12-28T07:17:58.865Z,0.90
2022-12-28T07:20:25.353Z,0.97
2022-12-28T07:22:51.880Z,1.03
2022-12-28T07:25:18.364Z,1.10
2022-12-28T07:27:44.906Z,0.60
2022-12-28T07:30:11.377Z,0.90
2022-12-28T07:32:37.860Z,1.00
2022-12-28T07:35:04.369Z,0.80
2022-12-28T07:37:30.835Z,0.93
2022-12-28T07:39:57.324Z,0.80
2022-12-28T07:42:23.826Z,1.30
2022-12-28T07:44:50.518Z,1.17
2022-12-28T07:47:17.066Z,1.27
2022-12-28T07:49:43.553Z,0.80
2022-12-28T07:52:10.055Z,1.30
2022-12-28T07:54:36.589Z,1.20
2022-12-28T07:57:03.058Z,1.47
2022-12-28T07:59:31.272Z,1.00
2022-12-28T08:01:58.255Z,1.07
2022-12-28T08:04:24.887Z,0.90
2022-12-28T08:06:51.455Z,0.90
2022-12-28T08:09:17.937Z,1.07
2022-12-28T08:11:44.463Z,1.20
2022-12-28T08:14:10.967Z,1.00
2022-12-28T08:16:37.480Z,1.30
2022-12-28T08:19:03.972Z,1.00
2022-12-28T08:21:30.466Z,0.83
2022-12-28T08:23:57.016Z,1.03
2022-12-28T08:26:23.587Z,0.63
2022-12-28T08:28:50.105Z,1.10
2022-12-28T08:31:16.625Z,0.80
2022-12-28T08:33:43.179Z,1.20
2022-12-28T08:36:09.682Z,1.20
2022-12-28T08:38:36.155Z,1.07
2022-12-28T08:41:02.647Z,0.70
2022-12-28T08:43:29.264Z,0.80
2022-12-28T08:45:55.984Z,0.70
2022-12-28T08:48:22.627Z,0.90
2022-12-28T08:50:49.111Z,0.80
2022-12-28T08:53:15.626Z,1.20
2022-12-28T08:55:42.134Z,0.70
2022-12-28T08:58:08.622Z,0.97
2022-12-28T09:00:35.169Z,1.00
2022-12-28T09:03:02.809Z,0.70
2022-12-28T09:05:33.177Z,0.70
2022-12-28T09:08:02.479Z,1.10
2022-12-28T09:10:29.030Z,0.60
2022-12-28T09:12:55.544Z,1.00
2022-12-28T09:15:22.050Z,1.10
2022-12-28T09:17:48.592Z,0.90
2022-12-28T09:20:15.167Z,0.90
2022-12-28T09:22:41.715Z,0.70
2022-12-28T09:25:08.247Z,0.60
2022-12-28T09:27:34.719Z,0.60
2022-12-28T09:30:01.269Z,0.73
2022-12-28T09:32:27.753Z,0.77
2022-12-28T09:34:54.256Z,0.60
2022-12-28T09:37:20.790Z,0.80
2022-12-28T09:39:47.512Z,0.87
2022-12-28T09:42:14.014Z,0.93
2022-12-28T09:44:40.511Z,0.90
2022-12-28T09:47:07.052Z,1.40
2022-12-28T09:49:33.617Z,0.60
2022-12-28T09:52:00.109Z,0.70
2022-12-28T09:54:26.594Z,0.90
2022-12-28T09:56:53.094Z,0.80
2022-12-28T09:59:19.611Z,1.10
2022-12-28T10:01:46.287Z,0.87
2022-12-28T10:04:12.979Z,0.90
2022-12-28T10:06:40.833Z,0.60
2022-12-28T10:09:07.324Z,1.00
2022-12-28T10:11:33.846Z,0.80
2022-12-28T10:14:00.368Z,1.20
2022-12-28T10:16:27.671Z,0.90
2022-12-28T10:18:54.184Z,0.90
2022-12-28T10:21:22.333Z,1.03
2022-12-28T10:24:28.984Z,0.80
2022-12-28T10:26:37.317Z,1.23
2022-12-28T10:29:03.809Z,1.80
2022-12-28T10:31:30.321Z,0.80
2022-12-28T10:33:56.834Z,0.83
2022-12-28T10:36:26.890Z,0.70
2022-12-28T10:38:57.978Z,1.10
2022-12-28T10:41:24.506Z,1.17
2022-12-28T10:44:08.569Z,1.57
2022-12-28T10:46:37.649Z,1.13
2022-12-28T10:49:04.435Z,1.03
2022-12-28T10:51:31.086Z,1.30
2022-12-28T10:53:57.576Z,1.77
2022-12-28T10:56:24.117Z,1.10
2022-12-28T10:58:50.700Z,1.30
2022-12-28T11:03:22.108Z,1.40
2022-12-28T11:04:03.781Z,1.40
2022-12-28T11:06:30.314Z,1.03
2022-12-28T11:08:56.796Z,1.70
2022-12-28T11:11:23.326Z,1.30
2022-12-28T11:13:49.856Z,1.07
2022-12-28T11:16:16.354Z,1.10
2022-12-28T11:18:42.884Z,1.33
2022-12-28T11:21:09.390Z,1.10
2022-12-28T11:23:35.961Z,0.97
2022-12-28T11:26:02.540Z,0.90
2022-12-28T11:28:29.041Z,0.90
2022-12-28T11:30:55.556Z,1.30
2022-12-28T11:33:22.043Z,0.97
2022-12-28T11:35:48.616Z,1.20
2022-12-28T11:38:15.098Z,1.73
2022-12-28T11:40:41.748Z,1.30
2022-12-28T11:43:08.225Z,1.20
2022-12-28T11:45:34.776Z,1.60
2022-12-28T11:48:01.327Z,1.87
2022-12-28T11:50:27.800Z,2.40
2022-12-28T11:52:54.293Z,1.17
2022-12-28T11:55:20.772Z,2.47
2022-12-28T11:57:47.247Z,1.33
2022-12-28T12:00:17.168Z,1.70
2022-12-28T12:02:48.386Z,1.60
2022-12-28T12:05:14.868Z,1.20
2022-12-28T12:07:41.420Z,1.40
2022-12-28T12:10:07.880Z,1.63
2022-12-28T12:12:34.499Z,1.30
2022-12-28T12:15:00.995Z,2.17
2022-12-28T12:17:27.481Z,1.40
2022-12-28T12:19:54.012Z,1.60
2022-12-28T12:22:21.154Z,1.30
2022-12-28T12:24:47.688Z,1.03
2022-12-28T12:27:14.327Z,2.43
2022-12-28T12:29:40.918Z,1.57
2022-12-28T12:32:07.419Z,1.27
2022-12-28T12:34:33.904Z,1.70
2022-12-28T12:37:00.415Z,1.10
2022-12-28T12:39:26.897Z,0.97
2022-12-28T12:41:53.508Z,1.90
2022-12-28T12:44:20.059Z,2.10
2022-12-28T12:46:46.554Z,1.60
2022-12-28T12:49:13.196Z,1.30
2022-12-28T12:51:39.914Z,1.80
2022-12-28T12:54:06.401Z,1.90
2022-12-28T12:56:33.348Z,1.30
2022-12-28T12:58:59.920Z,1.80
2022-12-28T13:01:26.557Z,1.10
2022-12-28T13:03:53.149Z,2.00
2022-12-28T13:06:19.634Z,1.70
2022-12-28T13:08:47.134Z,1.70
2022-12-28T13:11:14.266Z,1.40
2022-12-28T13:13:40.865Z,1.17
2022-12-28T13:16:07.427Z,1.70
2022-12-28T13:18:44.667Z,1.57
2022-12-28T13:21:13.005Z,1.30
2022-12-28T13:23:39.743Z,1.10
2022-12-28T13:26:06.737Z,2.17
2022-12-28T13:28:33.251Z,1.33
2022-12-28T13:30:59.824Z,1.10
2022-12-28T13:33:26.406Z,1.67
2022-12-28T13:35:52.886Z,1.90
2022-12-28T13:38:19.475Z,1.60
2022-12-28T13:40:45.946Z,1.97
2022-12-28T13:43:12.457Z,2.33
2022-12-28T13:45:38.988Z,1.73
2022-12-28T13:48:05.490Z,1.30
2022-12-28T13:50:32.024Z,1.40
2022-12-28T13:52:59.002Z,1.40
2022-12-28T13:55:25.490Z,1.30
2022-12-28T13:57:58.837Z,1.00
2022-12-28T14:00:26.294Z,1.40
2022-12-28T14:02:53.118Z,1.23
2022-12-28T14:05:19.771Z,1.23
2022-12-28T14:07:46.272Z,1.40
2022-12-28T14:10:12.777Z,1.20
2022-12-28T14:12:39.331Z,1.50
2022-12-28T14:15:05.867Z,1.20
2022-12-28T14:17:32.357Z,1.23
2022-12-28T14:19:59.210Z,0.93
2022-12-28T14:22:26.171Z,0.80
2022-12-28T14:24:52.702Z,2.13
2022-12-28T14:27:19.261Z,1.10
2022-12-28T14:29:45.760Z,1.40
2022-12-28T14:32:12.229Z,1.37
2022-12-28T14:34:38.969Z,1.20
2022-12-28T14:37:06.828Z,1.23
2022-12-28T14:39:34.661Z,1.00
2022-12-28T14:42:01.301Z,0.97
2022-12-28T14:44:28.016Z,1.20
2022-12-28T14:46:55.521Z,2.03
2022-12-28T14:49:22.078Z,1.00
2022-12-28T14:51:48.656Z,1.17
2022-12-28T14:54:15.169Z,1.47
2022-12-28T14:56:42.792Z,1.40
2022-12-28T14:59:09.299Z,1.10
2022-12-28T15:01:35.914Z,1.50
2022-12-28T15:04:03.549Z,1.47
2022-12-28T15:06:30.053Z,1.23
2022-12-28T15:08:58.705Z,1.60
2022-12-28T15:11:25.203Z,1.33
2022-12-28T15:13:51.863Z,1.67
2022-12-28T15:16:18.513Z,1.47
2022-12-28T15:18:45.272Z,1.10
2022-12-28T15:21:11.958Z,1.80
2022-12-28T15:23:38.460Z,1.50
2022-12-28T15:26:05.007Z,1.73
2022-12-28T15:28:31.576Z,1.80
2022-12-28T15:30:58.191Z,1.87
2022-12-28T15:33:24.730Z,1.50
2022-12-28T15:35:51.200Z,1.67
2022-12-28T15:38:17.735Z,1.40
2022-12-28T15:40:44.266Z,1.70
2022-12-28T15:43:10.730Z,1.40
2022-12-28T15:45:37.515Z,2.20
2022-12-28T15:48:04.954Z,1.50
2022-12-28T15:50:32.130Z,2.00
2022-12-28T15:52:59.774Z,1.63
2022-12-28T15:55:26.288Z,1.57
2022-12-28T15:57:52.858Z,1.70
2022-12-28T16:00:20.407Z,1.70
2022-12-28T16:02:47.191Z,1.60
2022-12-28T16:05:13.955Z,2.03
2022-12-28T16:07:40.471Z,1.87
2022-12-28T16:10:06.973Z,1.60
2022-12-28T16:12:33.471Z,2.10
2022-12-28T16:14:59.943Z,2.40
2022-12-28T16:17:26.486Z,2.00
2022-12-28T16:19:52.983Z,2.13
2022-12-28T16:22:19.519Z,1.70
2022-12-28T16:24:46.081Z,1.50
2022-12-28T16:27:12.630Z,1.47
2022-12-28T16:29:39.149Z,1.50
2022-12-28T16:32:05.673Z,2.00
2022-12-28T16:34:32.396Z,1.43
2022-12-28T16:36:59.440Z,1.70
2022-12-28T16:39:26.127Z,1.47
2022-12-28T16:41:52.733Z,1.47
2022-12-28T16:44:19.242Z,1.20
2022-12-28T16:46:45.723Z,1.43
2022-12-28T16:49:12.243Z,1.63
2022-12-28T16:51:38.735Z,1.83
2022-12-28T16:54:05.306Z,1.80
2022-12-28T16:56:31.872Z,1.40
2022-12-28T16:58:58.495Z,1.20
2022-12-28T17:01:25.442Z,2.03
2022-12-28T17:04:03.464Z,1.73
2022-12-28T17:06:37.664Z,2.10
2022-12-28T17:09:05.113Z,1.87
2022-12-28T17:11:32.353Z,2.30
2022-12-28T17:14:01.543Z,1.87
2022-12-28T17:16:31.481Z,1.47
2022-12-28T17:19:01.555Z,2.00
2022-12-28T17:21:30.996Z,1.70
2022-12-28T17:23:57.750Z,1.33
2022-12-28T17:26:24.229Z,1.40
2022-12-28T17:28:50.753Z,1.10
2022-12-28T17:31:17.317Z,1.53
2022-12-28T17:33:44.374Z,1.80
2022-12-28T17:36:10.931Z,1.23
2022-12-28T17:38:37.470Z,1.70
2022-12-28T17:41:03.960Z,1.70
2022-12-28T17:43:30.491Z,1.50
2022-12-28T17:45:57.312Z,1.20
2022-12-28T17:48:27.790Z,1.63
2022-12-28T17:50:54.280Z,1.53
2022-12-28T17:53:20.762Z,1.67
2022-12-28T17:55:47.377Z,1.43
2022-12-28T17:58:13.933Z,1.27
2022-12-28T18:00:40.425Z,1.37
2022-12-28T18:03:07.234Z,1.33
2022-12-28T18:05:34.520Z,1.10
2022-12-28T18:08:01.037Z,1.90
2022-12-28T18:10:27.639Z,1.47
2022-12-28T18:12:54.165Z,1.57
2022-12-28T18:15:20.639Z,2.13
2022-12-28T18:17:47.121Z,2.20
2022-12-28T18:20:14.268Z,1.60
2022-12-28T18:22:40.749Z,1.37
2022-12-28T18:25:07.338Z,1.40
2022-12-28T18:27:33.906Z,1.80
2022-12-28T18:30:00.407Z,1.70
2022-12-28T18:32:26.933Z,1.00
2022-12-28T18:34:53.864Z,2.47
2022-12-28T18:37:20.380Z,1.77
2022-12-28T18:39:46.883Z,1.87
2022-12-28T18:42:14.849Z,1.53
2022-12-28T18:44:41.408Z,1.90
2022-12-28T18:47:07.936Z,1.57
2022-12-28T18:49:34.446Z,1.80
2022-12-28T18:52:01.245Z,1.70
2022-12-28T18:54:27.750Z,1.93
2022-12-28T18:56:54.274Z,1.77
2022-12-28T18:59:20.869Z,2.03
2022-12-28T19:04:34.807Z,1.97
2022-12-28T19:07:01.430Z,1.30
2022-12-28T19:09:27.923Z,1.70
2022-12-28T19:11:54.428Z,1.20
2022-12-28T19:14:20.986Z,1.17
2022-12-28T19:16:47.812Z,1.30
2022-12-28T19:19:16.811Z,1.50
2022-12-28T19:21:43.353Z,1.37
2022-12-28T19:24:09.835Z,1.60
2022-12-28T19:26:36.351Z,1.77
2022-12-28T19:29:03.352Z,1.90
2022-12-28T19:31:30.174Z,1.80
2022-12-28T19:33:56.725Z,1.10
2022-12-28T19:36:23.210Z,1.13
2022-12-28T19:38:49.753Z,1.80
2022-12-28T19:41:16.367Z,1.80
2022-12-28T19:43:42.907Z,1.50
2022-12-28T19:46:09.674Z,1.93
2022-12-28T19:48:36.287Z,1.80
2022-12-28T19:51:02.825Z,1.60
2022-12-28T19:53:29.406Z,1.60
2022-12-28T19:55:55.925Z,1.97
2022-12-28T19:58:24.972Z,1.50
2022-12-28T20:00:51.758Z,1.40
2022-12-28T20:03:18.315Z,1.90
2022-12-28T20:05:44.885Z,1.77
2022-12-28T20:08:11.462Z,1.20
2022-12-28T20:10:37.984Z,1.30
2022-12-28T20:13:04.533Z,2.13
2022-12-28T20:15:31.046Z,1.37
2022-12-28T20:17:57.583Z,2.33
2022-12-28T20:20:27.478Z,2.20
2022-12-28T20:22:55.311Z,1.87
2022-12-28T20:25:21.800Z,2.03
2022-12-28T20:27:48.315Z,1.13
2022-12-28T20:30:14.829Z,1.90
2022-12-28T20:32:44.859Z,1.97
2022-12-28T20:35:11.628Z,1.60
2022-12-28T20:37:38.168Z,2.00
2022-12-28T20:40:05.542Z,1.77
2022-12-28T20:42:51.061Z,1.80
2022-12-28T20:45:17.662Z,1.60
2022-12-28T20:47:44.199Z,1.50
2022-12-28T20:50:10.679Z,1.40
2022-12-28T20:52:37.178Z,1.93
2022-12-28T20:55:03.657Z,2.17
2022-12-28T20:57:33.064Z,2.00
2022-12-28T20:59:59.602Z,1.63
2022-12-28T21:02:26.273Z,1.57
2022-12-28T21:04:52.876Z,1.83
2022-12-28T21:07:19.672Z,1.37
2022-12-28T21:09:50.552Z,1.27
2022-12-28T21:12:17.452Z,1.57
2022-12-28T21:14:44.067Z,1.60
2022-12-28T21:17:10.552Z,2.80
2022-12-28T21:19:37.042Z,1.70
2022-12-28T21:22:03.595Z,1.30
2022-12-28T21:24:30.131Z,1.57
2022-12-28T21:26:56.617Z,2.03
2022-12-28T21:29:25.908Z,1.50
2022-12-28T21:31:52.642Z,1.77
2022-12-28T21:34:19.240Z,2.00
2022-12-28T21:36:45.741Z,1.57
2022-12-28T21:39:12.231Z,1.80
2022-12-28T21:41:51.152Z,2.00
2022-12-28T21:44:19.320Z,1.80
2022-12-28T21:46:45.833Z,1.67
2022-12-28T21:49:12.325Z,2.33
2022-12-28T21:51:40.463Z,1.33
2022-12-28T21:54:06.958Z,2.20
2022-12-28T21:56:33.509Z,1.93
2022-12-28T21:59:00.082Z,2.20
2022-12-28T22:01:45.562Z,1.80
2022-12-28T22:04:30.995Z,1.90
2022-12-28T22:06:57.516Z,1.77
2022-12-28T22:09:42.882Z,2.73
2022-12-28T22:12:28.107Z,1.90
2022-12-28T22:15:14.597Z,1.70
2022-12-28T22:17:41.117Z,2.17
2022-12-28T22:20:07.629Z,2.30
2022-12-28T22:22:34.191Z,2.70
2022-12-28T22:25:00.731Z,2.03
2022-12-28T22:27:27.292Z,2.10
2022-12-28T22:29:55.237Z,2.50
2022-12-28T22:32:22.132Z,2.40
2022-12-28T22:34:48.651Z,2.13
2022-12-28T22:37:15.174Z,2.40
2022-12-28T22:39:41.686Z,2.10
2022-12-28T22:42:11.252Z,3.07
2022-12-28T22:44:37.758Z,3.00
2022-12-28T22:47:04.268Z,2.43
2022-12-28T22:49:30.761Z,2.60
2022-12-28T22:51:57.266Z,2.57
2022-12-28T22:54:23.738Z,2.43
2022-12-28T22:56:50.271Z,2.77
2022-12-28T22:59:16.807Z,1.93
2022-12-28T23:01:44.107Z,2.30
2022-12-28T23:04:10.657Z,2.33
2022-12-28T23:06:37.157Z,2.13
2022-12-28T23:09:03.683Z,2.37
2022-12-28T23:11:36.395Z,1.57
2022-12-28T23:14:21.806Z,1.50
2022-12-28T23:16:48.431Z,2.60
2022-12-28T23:19:33.985Z,2.20
2022-12-28T23:22:19.289Z,2.00
2022-12-28T23:25:04.449Z,1.57
2022-12-28T23:27:30.962Z,1.87
2022-12-28T23:29:57.491Z,2.20
2022-12-28T23:32:24.090Z,1.73
2022-12-28T23:34:50.628Z,1.20
2022-12-28T23:37:17.159Z,1.30
2022-12-28T23:39:43.662Z,1.40
2022-12-28T23:42:10.224Z,1.43
2022-12-28T23:44:36.801Z,1.50
2022-12-28T23:47:03.694Z,1.33
2022-12-28T23:49:30.215Z,1.90
2022-12-28T23:51:56.781Z,1.40
2022-12-28T23:54:23.295Z,1.30
2022-12-28T23:56:49.855Z,1.20
2022-12-28T23:59:16.408Z,1.00
